createdAt,value
2023-03-05T00:04:32.337Z,21.4
2023-03-05T00:10:25.586Z,21.4
2023-03-05T00:16:17.811Z,21.4
2023-03-05T00:27:15.936Z,21.4
2023-03-05T00:33:11.477Z,21.3
2023-03-05T00:39:04.173Z,21.3
2023-03-05T00:44:57.780Z,21.3
2023-03-05T00:50:51.059Z,21.3
2023-03-05T00:56:43.367Z,21.3
2023-03-05T01:02:36.626Z,21.3
2023-03-05T01:08:30.164Z,21.3
2023-03-05T01:14:21.540Z,21.3
2023-03-05T01:19:59.081Z,21.3
2023-03-05T01:25:51.793Z,21.3
2023-03-05T01:31:28.752Z,21.3
2023-03-05T01:36:52.671Z,21.3
2023-03-05T01:42:45.774Z,21.2
2023-03-05T01:48:38.868Z,21.2
2023-03-05T01:54:16.686Z,21.2
2023-03-05T02:00:09.846Z,21.2
2023-03-05T02:06:02.497Z,21.2
2023-03-05T02:11:39.640Z,21.3
2023-03-05T02:22:53.595Z,21.6
2023-03-05T02:28:30.120Z,21.9
2023-03-05T02:34:07.633Z,22.3
2023-03-05T02:40:00.281Z,22.8
2023-03-05T02:45:52.412Z,23.3
2023-03-05T02:51:45.377Z,23.8
2023-03-05T02:57:38.720Z,24.4
2023-03-05T03:03:32.468Z,25
2023-03-05T03:09:24.950Z,25.6
2023-03-05T03:14:46.812Z,26.3
2023-03-05T03:20:24.595Z,26.9
2023-03-05T03:26:17.371Z,27.6
2023-03-05T03:31:40.070Z,28.3
2023-03-05T03:37:31.893Z,28.8
2023-03-05T03:43:08.985Z,29.1
2023-03-05T03:48:46.386Z,29.3
2023-03-05T03:54:37.807Z,29.4
2023-03-05T04:00:30.464Z,29.5
2023-03-05T04:06:23.011Z,29.5
2023-03-05T04:12:14.538Z,29.6
2023-03-05T04:17:52.452Z,29.6
2023-03-05T04:23:29.336Z,29.6
2023-03-05T04:29:21.880Z,29.6
2023-03-05T04:35:15.365Z,29.6
2023-03-05T04:41:08.218Z,29.6
2023-03-05T04:47:00.142Z,29.6
2023-03-05T04:52:52.508Z,29.6
2023-03-05T05:04:08.488Z,29.6
2023-03-05T05:09:45.752Z,29.6
2023-03-05T05:15:37.942Z,29.6
2023-03-05T05:21:31.746Z,29.6
2023-03-05T05:27:24.070Z,29.6
2023-03-05T05:33:17.387Z,29.5
2023-03-05T05:39:10.055Z,29.5
2023-03-05T05:45:02.865Z,29.5
2023-03-05T05:50:56.273Z,29.4
2023-03-05T05:56:48.850Z,29.4
2023-03-05T06:02:26.792Z,29.4
2023-03-05T06:08:22.341Z,29.4
2023-03-05T06:14:15.137Z,29.4
2023-03-05T06:20:16.588Z,29.4
2023-03-05T06:26:08.444Z,29.4
2023-03-05T06:32:01.403Z,29.4
2023-03-05T06:37:54.452Z,29.4
2023-03-05T06:43:47.296Z,29.4
2023-03-05T06:49:24.621Z,29.3
2023-03-05T06:55:18.016Z,29.3
2023-03-05T07:01:11.859Z,29.3
2023-03-05T07:07:04.541Z,29.3
2023-03-05T07:12:59.161Z,29.3
2023-03-05T07:18:52.689Z,29.3
2023-03-05T07:24:45.310Z,29.2
2023-03-05T07:30:38.583Z,29.2
2023-03-05T07:36:31.966Z,29.2
2023-03-05T07:42:09.205Z,29.2
2023-03-05T07:48:03.104Z,31.3
2023-03-05T07:53:56.367Z,37.3
2023-03-05T07:59:34.830Z,35.5
2023-03-05T08:05:29.112Z,34.3
2023-03-05T08:11:22.131Z,33.3
2023-03-05T08:17:15.170Z,32.6
2023-03-05T08:22:53.108Z,32
2023-03-05T08:28:45.773Z,39.5
2023-03-05T08:34:41.513Z,35.6
2023-03-05T08:40:35.129Z,34.1
2023-03-05T08:46:28.443Z,43.4
2023-03-05T08:52:21.505Z,45.4
2023-03-05T08:58:14.232Z,47.4
2023-03-05T09:04:07.821Z,44.8
2023-03-05T09:09:44.924Z,43.3
2023-03-05T09:15:37.059Z,43.7
2023-03-05T09:21:31.011Z,44.6
2023-03-05T09:27:24.973Z,43.5
2023-03-05T09:33:18.894Z,42.8
2023-03-05T09:39:12.384Z,42.4
2023-03-05T09:45:04.952Z,42.1
2023-03-05T09:50:58.321Z,41.6
2023-03-05T09:56:50.944Z,41.3
2023-03-05T10:02:42.757Z,40.9
2023-03-05T10:08:35.484Z,40.8
2023-03-05T10:14:28.705Z,41.2
2023-03-05T10:25:43.692Z,41.8
2023-03-05T10:31:36.395Z,41
2023-03-05T10:37:31.081Z,40.8
2023-03-05T10:43:24.099Z,40.8
2023-03-05T10:49:17.295Z,41.4
2023-03-05T10:55:10.657Z,43
2023-03-05T11:00:48.046Z,46.4
2023-03-05T11:06:44.197Z,46.6
2023-03-05T11:12:36.759Z,46.8
2023-03-05T11:18:16.731Z,49.5
2023-03-05T11:24:11.960Z,47
2023-03-05T11:30:12.063Z,45.3
2023-03-05T11:36:05.453Z,44.7
2023-03-05T11:41:43.077Z,46
2023-03-05T11:47:37.551Z,47.1
2023-03-05T11:53:32.251Z,49.9
2023-03-05T11:59:26.309Z,48.6
2023-03-05T12:05:22.802Z,50.5
2023-03-05T12:10:59.631Z,47.6
2023-03-05T12:16:53.903Z,47.5
2023-03-05T12:22:30.999Z,46.4
2023-03-05T12:28:09.252Z,48.8
2023-03-05T12:34:05.927Z,48.9
2023-03-05T12:40:21.750Z,49.6
2023-03-05T12:46:00.171Z,46.1
2023-03-05T12:51:54.211Z,46.1
2023-03-05T12:57:33.752Z,47.4
2023-03-05T13:03:11.822Z,46.3
2023-03-05T13:08:49.732Z,45.1
2023-03-05T13:14:44.147Z,44.9
2023-03-05T13:20:37.413Z,44.5
2023-03-05T13:26:31.049Z,43.9
2023-03-05T13:32:24.691Z,43.2
2023-03-05T13:38:27.922Z,42.4
2023-03-05T13:44:22.575Z,41.6
2023-03-05T13:50:16.893Z,39.5
2023-03-05T13:56:10.022Z,37.6
2023-03-05T14:02:06.885Z,36.3
2023-03-05T14:08:04.286Z,35.3
2023-03-05T14:13:57.949Z,34.6
2023-03-05T14:19:04.400Z,34
2023-03-05T14:25:05.140Z,33.6
2023-03-05T14:30:59.549Z,33.2
2023-03-05T14:36:53.451Z,32.9
2023-03-05T14:42:32.069Z,32.7
2023-03-05T14:48:08.718Z,32.4
2023-03-05T14:53:30.269Z,32.3
2023-03-05T14:59:07.457Z,32.2
2023-03-05T15:05:02.883Z,32
2023-03-05T15:10:56.000Z,31.9
2023-03-05T15:16:49.351Z,31.8
2023-03-05T15:22:26.753Z,31.8
2023-03-05T15:28:05.355Z,31.6
2023-03-05T15:33:30.877Z,31.6
2023-03-05T15:38:52.042Z,31.5
2023-03-05T15:44:29.753Z,31.4
2023-03-05T15:50:07.158Z,31.3
2023-03-05T15:55:45.412Z,31.2
2023-03-05T16:01:23.297Z,31.1
2023-03-05T16:07:00.265Z,31
2023-03-05T16:12:38.843Z,30.9
2023-03-05T16:18:18.331Z,30.8
2023-03-05T16:23:54.736Z,30.8
2023-03-05T16:29:31.632Z,30.7
2023-03-05T16:35:09.589Z,30.6
2023-03-05T16:40:51.309Z,30.6
2023-03-05T16:46:35.137Z,30.5
2023-03-05T16:51:59.328Z,30.5
2023-03-05T17:03:23.085Z,30.3
2023-03-05T17:09:01.592Z,30.3
2023-03-05T17:14:38.627Z,30.1
2023-03-05T17:20:16.818Z,30.1
2023-03-05T17:25:55.871Z,30.1
2023-03-05T17:31:17.908Z,30.1
2023-03-05T17:37:21.617Z,30
2023-03-05T17:42:59.039Z,29.9
2023-03-05T17:48:36.065Z,29.9
2023-03-05T17:54:28.442Z,29.9
2023-03-05T18:00:23.166Z,29.8
2023-03-05T18:06:16.249Z,29.8
2023-03-05T18:11:53.829Z,29.8
2023-03-05T18:17:32.490Z,29.8
2023-03-05T18:23:27.390Z,29.7
2023-03-05T18:29:20.452Z,29.7
2023-03-05T18:35:12.888Z,29.6
2023-03-05T18:41:08.386Z,29.6
2023-03-05T18:46:49.051Z,29.6
2023-03-05T18:52:27.593Z,29.6
2023-03-05T18:58:19.857Z,29.5
2023-03-05T19:04:12.993Z,29.4
2023-03-05T19:10:06.832Z,29.4
2023-03-05T19:15:44.936Z,29.4
2023-03-05T19:21:22.602Z,29.4
2023-03-05T19:27:15.424Z,29.4
2023-03-05T19:33:07.668Z,29.3
2023-03-05T19:39:01.623Z,29.3
2023-03-05T19:44:55.046Z,29.3
2023-03-05T19:50:51.009Z,29.2
2023-03-05T20:01:52.539Z,29.1
2023-03-05T20:07:30.400Z,29.1
2023-03-05T20:13:25.204Z,29
2023-03-05T20:19:18.217Z,29.1
2023-03-05T20:25:15.431Z,29.4
2023-03-05T20:30:56.815Z,29.9
2023-03-05T20:36:51.462Z,30.4
2023-03-05T20:42:45.459Z,31.1
2023-03-05T20:48:08.706Z,31.6
2023-03-05T20:53:46.818Z,32.3
2023-03-05T20:59:09.830Z,32.8
2023-03-05T21:04:33.047Z,33.4
2023-03-05T21:09:56.199Z,34
2023-03-05T21:15:49.921Z,34.4
2023-03-05T21:21:29.534Z,34.7
2023-03-05T21:27:23.246Z,34.8
2023-03-05T21:33:01.038Z,34.8
2023-03-05T21:44:33.659Z,35
2023-03-05T21:50:26.941Z,35
2023-03-05T21:56:19.597Z,35
2023-03-05T22:02:12.136Z,35.1
2023-03-05T22:07:48.917Z,35.1
2023-03-05T22:13:24.771Z,35.1
2023-03-05T22:19:19.334Z,35.1
2023-03-05T22:24:56.825Z,35
2023-03-05T22:30:49.547Z,35
2023-03-05T22:36:27.423Z,35
2023-03-05T22:47:41.582Z,34.9
2023-03-05T22:53:34.610Z,34.9
2023-03-05T23:04:33.506Z,34.9
2023-03-05T23:10:27.304Z,34.9
2023-03-05T23:21:25.528Z,34.8
2023-03-05T23:27:02.901Z,34.8
2023-03-05T23:32:40.833Z,34.8
2023-03-05T23:38:18.524Z,34.8
2023-03-05T23:43:56.513Z,34.8
2023-03-05T23:49:33.760Z,34.7
2023-03-05T23:55:14.503Z,34.7
